sensor_id;sensor_type;location;lat;lon;timestamp;P1;durP1;ratioP1;P2;durP2;ratioP2
16246;SDS011;8231;50.866;7.944;2022-09-28T00:00:58;4.80;;;2.28;;
16246;SDS011;8231;50.866;7.944;2022-09-28T00:03:26;4.18;;;2.67;;
16246;SDS011;8231;50.866;7.944;2022-09-28T00:05:59;5.07;;;2.08;;
16246;SDS011;8231;50.866;7.944;2022-09-28T00:08:29;2.95;;;2.20;;
16246;SDS011;8231;50.866;7.944;2022-09-28T00:10:57;3.20;;;2.08;;
16246;SDS011;8231;50.866;7.944;2022-09-28T00:13:25;5.10;;;2.80;;
16246;SDS011;8231;50.866;7.944;2022-09-28T00:15:58;4.40;;;3.28;;
16246;SDS011;8231;50.866;7.944;2022-09-28T00:18:27;4.35;;;2.63;;
16246;SDS011;8231;50.866;7.944;2022-09-28T00:20:59;2.80;;;2.50;;
16246;SDS011;8231;50.866;7.944;2022-09-28T00:23:29;5.60;;;2.47;;
16246;SDS011;8231;50.866;7.944;2022-09-28T00:26:00;3.67;;;2.38;;
16246;SDS011;8231;50.866;7.944;2022-09-28T00:28:29;4.68;;;2.22;;
16246;SDS011;8231;50.866;7.944;2022-09-28T00:30:57;7.20;;;4.85;;
16246;SDS011;8231;50.866;7.944;2022-09-28T00:33:26;4.45;;;2.55;;
16246;SDS011;8231;50.866;7.944;2022-09-28T00:35:55;3.75;;;2.50;;
16246;SDS011;8231;50.866;7.944;2022-09-28T00:38:28;2.80;;;2.55;;
16246;SDS011;8231;50.866;7.944;2022-09-28T00:40:56;3.45;;;2.45;;
16246;SDS011;8231;50.866;7.944;2022-09-28T00:43:25;2.83;;;2.45;;
16246;SDS011;8231;50.866;7.944;2022-09-28T00:45:55;4.03;;;2.30;;
16246;SDS011;8231;50.866;7.944;2022-09-28T00:48:26;2.63;;;2.17;;
16246;SDS011;8231;50.866;7.944;2022-09-28T00:50:57;8.43;;;2.80;;
16246;SDS011;8231;50.866;7.944;2022-09-28T00:53:29;4.43;;;3.88;;
16246;SDS011;8231;50.866;7.944;2022-09-28T00:56:00;4.70;;;2.63;;
16246;SDS011;8231;50.866;7.944;2022-09-28T00:58:38;4.18;;;2.65;;
16246;SDS011;8231;50.866;7.944;2022-09-28T01:01:09;4.13;;;2.53;;
16246;SDS011;8231;50.866;7.944;2022-09-28T01:03:38;3.38;;;2.50;;
16246;SDS011;8231;50.866;7.944;2022-09-28T01:06:10;4.03;;;2.60;;
16246;SDS011;8231;50.866;7.944;2022-09-28T01:08:45;4.45;;;2.25;;
16246;SDS011;8231;50.866;7.944;2022-09-28T01:11:17;3.97;;;2.30;;
16246;SDS011;8231;50.866;7.944;2022-09-28T01:13:45;6.28;;;2.15;;
16246;SDS011;8231;50.866;7.944;2022-09-28T01:16:18;2.85;;;2.28;;
16246;SDS011;8231;50.866;7.944;2022-09-28T01:18:57;5.38;;;3.15;;
16246;SDS011;8231;50.866;7.944;2022-09-28T01:21:34;2.53;;;2.33;;
16246;SDS011;8231;50.866;7.944;2022-09-28T01:24:15;2.67;;;2.47;;
16246;SDS011;8231;50.866;7.944;2022-09-28T01:27:01;4.60;;;2.40;;
16246;SDS011;8231;50.866;7.944;2022-09-28T01:29:40;2.78;;;2.58;;
16246;SDS011;8231;50.866;7.944;2022-09-28T01:32:21;5.13;;;2.85;;
16246;SDS011;8231;50.866;7.944;2022-09-28T01:34:56;3.80;;;2.72;;
16246;SDS011;8231;50.866;7.944;2022-09-28T01:37:29;3.67;;;2.50;;
16246;SDS011;8231;50.866;7.944;2022-09-28T01:40:02;2.63;;;2.42;;
16246;SDS011;8231;50.866;7.944;2022-09-28T01:42:35;2.75;;;2.55;;
16246;SDS011;8231;50.866;7.944;2022-09-28T01:45:06;9.70;;;2.97;;
16246;SDS011;8231;50.866;7.944;2022-09-28T01:47:40;3.47;;;2.50;;
16246;SDS011;8231;50.866;7.944;2022-09-28T01:50:12;4.75;;;2.60;;
16246;SDS011;8231;50.866;7.944;2022-09-28T01:52:44;3.13;;;2.83;;
16246;SDS011;8231;50.866;7.944;2022-09-28T01:55:17;3.65;;;3.35;;
16246;SDS011;8231;50.866;7.944;2022-09-28T01:57:55;3.20;;;2.90;;
16246;SDS011;8231;50.866;7.944;2022-09-28T02:00:26;5.95;;;3.22;;
16246;SDS011;8231;50.866;7.944;2022-09-28T02:02:57;3.38;;;3.08;;
16246;SDS011;8231;50.866;7.944;2022-09-28T02:05:42;2.97;;;2.35;;
16246;SDS011;8231;50.866;7.944;2022-09-28T02:08:16;3.35;;;3.08;;
16246;SDS011;8231;50.866;7.944;2022-09-28T02:10:51;4.30;;;3.30;;
16246;SDS011;8231;50.866;7.944;2022-09-28T02:13:27;3.55;;;3.17;;
16246;SDS011;8231;50.866;7.944;2022-09-28T02:15:59;4.30;;;3.90;;
16246;SDS011;8231;50.866;7.944;2022-09-28T02:18:31;3.45;;;3.13;;
16246;SDS011;8231;50.866;7.944;2022-09-28T02:21:02;5.75;;;3.30;;
16246;SDS011;8231;50.866;7.944;2022-09-28T02:23:35;4.05;;;2.97;;
16246;SDS011;8231;50.866;7.944;2022-09-28T02:26:09;3.97;;;3.22;;
16246;SDS011;8231;50.866;7.944;2022-09-28T02:28:41;3.28;;;2.97;;
16246;SDS011;8231;50.866;7.944;2022-09-28T02:31:09;5.15;;;3.17;;
16246;SDS011;8231;50.866;7.944;2022-09-28T02:33:39;6.22;;;3.50;;
16246;SDS011;8231;50.866;7.944;2022-09-28T02:36:11;5.68;;;3.50;;
16246;SDS011;8231;50.866;7.944;2022-09-28T02:38:39;4.93;;;3.50;;
16246;SDS011;8231;50.866;7.944;2022-09-28T02:41:08;3.95;;;3.42;;
16246;SDS011;8231;50.866;7.944;2022-09-28T02:43:49;6.93;;;3.50;;
16246;SDS011;8231;50.866;7.944;2022-09-28T02:46:28;5.55;;;4.22;;
16246;SDS011;8231;50.866;7.944;2022-09-28T02:49:17;4.38;;;3.55;;
16246;SDS011;8231;50.866;7.944;2022-09-28T02:51:58;4.30;;;3.75;;
16246;SDS011;8231;50.866;7.944;2022-09-28T02:54:50;5.20;;;3.50;;
16246;SDS011;8231;50.866;7.944;2022-09-28T02:57:37;5.57;;;3.50;;
16246;SDS011;8231;50.866;7.944;2022-09-28T03:00:16;5.88;;;4.15;;
16246;SDS011;8231;50.866;7.944;2022-09-28T03:02:48;4.82;;;4.15;;
16246;SDS011;8231;50.866;7.944;2022-09-28T03:05:31;4.88;;;4.40;;
16246;SDS011;8231;50.866;7.944;2022-09-28T03:08:08;4.63;;;3.88;;
16246;SDS011;8231;50.866;7.944;2022-09-28T03:10:43;5.50;;;4.97;;
16246;SDS011;8231;50.866;7.944;2022-09-28T03:13:16;4.35;;;3.88;;
16246;SDS011;8231;50.866;7.944;2022-09-28T03:15:46;7.75;;;4.68;;
16246;SDS011;8231;50.866;7.944;2022-09-28T03:18:16;5.57;;;4.82;;
16246;SDS011;8231;50.866;7.944;2022-09-28T03:20:44;5.93;;;5.32;;
16246;SDS011;8231;50.866;7.944;2022-09-28T03:23:12;6.90;;;5.22;;
16246;SDS011;8231;50.866;7.944;2022-09-28T03:25:56;6.32;;;5.55;;
16246;SDS011;8231;50.866;7.944;2022-09-28T03:28:24;6.40;;;5.80;;
16246;SDS011;8231;50.866;7.944;2022-09-28T03:30:54;6.60;;;5.47;;
16246;SDS011;8231;50.866;7.944;2022-09-28T03:33:23;5.80;;;5.28;;
16246;SDS011;8231;50.866;7.944;2022-09-28T03:35:51;9.13;;;5.78;;
16246;SDS011;8231;50.866;7.944;2022-09-28T03:38:20;10.00;;;5.80;;
16246;SDS011;8231;50.866;7.944;2022-09-28T03:40:51;5.43;;;4.63;;
16246;SDS011;8231;50.866;7.944;2022-09-28T03:43:20;6.47;;;5.88;;
16246;SDS011;8231;50.866;7.944;2022-09-28T03:45:51;6.68;;;5.97;;
16246;SDS011;8231;50.866;7.944;2022-09-28T03:48:23;7.18;;;6.30;;
16246;SDS011;8231;50.866;7.944;2022-09-28T03:50:58;6.70;;;5.53;;
16246;SDS011;8231;50.866;7.944;2022-09-28T03:53:28;9.07;;;6.68;;
16246;SDS011;8231;50.866;7.944;2022-09-28T03:56:01;9.93;;;6.05;;
16246;SDS011;8231;50.866;7.944;2022-09-28T03:58:30;6.38;;;5.78;;
16246;SDS011;8231;50.866;7.944;2022-09-28T04:01:02;7.53;;;6.72;;
16246;SDS011;8231;50.866;7.944;2022-09-28T04:03:32;12.38;;;7.03;;
16246;SDS011;8231;50.866;7.944;2022-09-28T04:06:01;8.00;;;6.25;;
16246;SDS011;8231;50.866;7.944;2022-09-28T04:08:29;8.77;;;6.35;;
16246;SDS011;8231;50.866;7.944;2022-09-28T04:10:58;9.88;;;8.00;;
16246;SDS011;8231;50.866;7.944;2022-09-28T04:13:28;10.35;;;7.82;;
16246;SDS011;8231;50.866;7.944;2022-09-28T04:15:57;9.77;;;7.78;;
16246;SDS011;8231;50.866;7.944;2022-09-28T04:18:30;9.15;;;6.05;;
16246;SDS011;8231;50.866;7.944;2022-09-28T04:21:10;12.73;;;7.20;;
16246;SDS011;8231;50.866;7.944;2022-09-28T04:23:45;8.27;;;7.35;;
16246;SDS011;8231;50.866;7.944;2022-09-28T04:26:15;11.80;;;6.93;;
16246;SDS011;8231;50.866;7.944;2022-09-28T04:28:46;8.38;;;6.82;;
16246;SDS011;8231;50.866;7.944;2022-09-28T04:31:36;9.70;;;7.80;;
16246;SDS011;8231;50.866;7.944;2022-09-28T04:34:07;9.32;;;7.72;;
16246;SDS011;8231;50.866;7.944;2022-09-28T04:36:35;13.60;;;8.02;;
16246;SDS011;8231;50.866;7.944;2022-09-28T04:39:03;12.50;;;8.68;;
16246;SDS011;8231;50.866;7.944;2022-09-28T04:41:32;13.68;;;9.25;;
16246;SDS011;8231;50.866;7.944;2022-09-28T04:44:01;16.10;;;9.77;;
16246;SDS011;8231;50.866;7.944;2022-09-28T04:46:29;11.93;;;8.85;;
16246;SDS011;8231;50.866;7.944;2022-09-28T04:49:17;14.40;;;8.90;;
16246;SDS011;8231;50.866;7.944;2022-09-28T04:51:51;13.25;;;10.25;;
16246;SDS011;8231;50.866;7.944;2022-09-28T04:54:19;15.65;;;9.75;;
16246;SDS011;8231;50.866;7.944;2022-09-28T04:56:48;13.32;;;9.07;;
16246;SDS011;8231;50.866;7.944;2022-09-28T04:59:18;10.73;;;9.18;;
16246;SDS011;8231;50.866;7.944;2022-09-28T05:01:46;12.07;;;8.63;;
16246;SDS011;8231;50.866;7.944;2022-09-28T05:04:28;12.48;;;9.05;;
16246;SDS011;8231;50.866;7.944;2022-09-28T05:07:08;11.27;;;8.52;;
16246;SDS011;8231;50.866;7.944;2022-09-28T05:09:36;11.38;;;8.50;;
16246;SDS011;8231;50.866;7.944;2022-09-28T05:12:04;14.43;;;10.02;;
16246;SDS011;8231;50.866;7.944;2022-09-28T05:14:32;14.00;;;9.40;;
16246;SDS011;8231;50.866;7.944;2022-09-28T05:17:02;14.15;;;10.15;;
16246;SDS011;8231;50.866;7.944;2022-09-28T05:19:47;12.23;;;9.23;;
16246;SDS011;8231;50.866;7.944;2022-09-28T05:22:15;10.43;;;7.93;;
16246;SDS011;8231;50.866;7.944;2022-09-28T05:24:45;10.23;;;8.82;;
16246;SDS011;8231;50.866;7.944;2022-09-28T05:27:13;10.45;;;8.30;;
16246;SDS011;8231;50.866;7.944;2022-09-28T05:29:44;12.52;;;8.88;;
16246;SDS011;8231;50.866;7.944;2022-09-28T05:32:22;11.98;;;8.95;;
16246;SDS011;8231;50.866;7.944;2022-09-28T05:35:05;13.10;;;8.25;;
16246;SDS011;8231;50.866;7.944;2022-09-28T05:37:40;13.18;;;9.52;;
16246;SDS011;8231;50.866;7.944;2022-09-28T05:40:09;15.23;;;10.10;;
16246;SDS011;8231;50.866;7.944;2022-09-28T05:42:37;12.85;;;9.13;;
16246;SDS011;8231;50.866;7.944;2022-09-28T05:45:06;11.55;;;9.90;;
16246;SDS011;8231;50.866;7.944;2022-09-28T05:47:37;13.32;;;10.13;;
16246;SDS011;8231;50.866;7.944;2022-09-28T05:50:09;12.68;;;9.90;;
16246;SDS011;8231;50.866;7.944;2022-09-28T05:52:41;12.90;;;9.40;;
16246;SDS011;8231;50.866;7.944;2022-09-28T05:55:11;12.95;;;11.20;;
16246;SDS011;8231;50.866;7.944;2022-09-28T05:57:40;13.27;;;10.25;;
16246;SDS011;8231;50.866;7.944;2022-09-28T06:00:09;10.45;;;9.30;;
16246;SDS011;8231;50.866;7.944;2022-09-28T06:02:39;17.70;;;8.98;;
16246;SDS011;8231;50.866;7.944;2022-09-28T06:05:11;17.05;;;10.85;;
16246;SDS011;8231;50.866;7.944;2022-09-28T06:07:39;11.48;;;9.20;;
16246;SDS011;8231;50.866;7.944;2022-09-28T06:10:08;11.57;;;9.60;;
16246;SDS011;8231;50.866;7.944;2022-09-28T06:12:40;11.93;;;9.65;;
16246;SDS011;8231;50.866;7.944;2022-09-28T06:15:13;11.43;;;8.68;;
16246;SDS011;8231;50.866;7.944;2022-09-28T06:17:44;11.57;;;9.02;;
16246;SDS011;8231;50.866;7.944;2022-09-28T06:20:35;10.35;;;8.90;;
16246;SDS011;8231;50.866;7.944;2022-09-28T06:23:08;9.18;;;7.78;;
16246;SDS011;8231;50.866;7.944;2022-09-28T06:25:36;11.52;;;7.45;;
16246;SDS011;8231;50.866;7.944;2022-09-28T06:28:05;9.23;;;8.10;;
16246;SDS011;8231;50.866;7.944;2022-09-28T06:30:35;10.35;;;7.43;;
16246;SDS011;8231;50.866;7.944;2022-09-28T06:33:09;9.77;;;7.70;;
16246;SDS011;8231;50.866;7.944;2022-09-28T06:35:40;8.68;;;6.53;;
16246;SDS011;8231;50.866;7.944;2022-09-28T06:38:09;7.28;;;6.50;;
16246;SDS011;8231;50.866;7.944;2022-09-28T06:40:38;7.10;;;6.40;;
16246;SDS011;8231;50.866;7.944;2022-09-28T06:43:07;8.02;;;7.03;;
16246;SDS011;8231;50.866;7.944;2022-09-28T06:46:12;8.15;;;5.82;;
16246;SDS011;8231;50.866;7.944;2022-09-28T06:48:41;7.60;;;6.47;;
16246;SDS011;8231;50.866;7.944;2022-09-28T06:51:18;7.10;;;5.85;;
16246;SDS011;8231;50.866;7.944;2022-09-28T06:53:54;6.55;;;5.50;;
16246;SDS011;8231;50.866;7.944;2022-09-28T06:56:51;6.55;;;5.40;;
16246;SDS011;8231;50.866;7.944;2022-09-28T06:59:19;5.88;;;5.28;;
16246;SDS011;8231;50.866;7.944;2022-09-28T07:01:48;4.68;;;4.18;;
16246;SDS011;8231;50.866;7.944;2022-09-28T07:04:39;5.85;;;4.82;;
16246;SDS011;8231;50.866;7.944;2022-09-28T07:07:12;5.28;;;4.78;;
16246;SDS011;8231;50.866;7.944;2022-09-28T07:10:19;6.82;;;5.43;;
16246;SDS011;8231;50.866;7.944;2022-09-28T07:13:05;7.45;;;5.50;;
16246;SDS011;8231;50.866;7.944;2022-09-28T07:15:52;6.30;;;4.65;;
16246;SDS011;8231;50.866;7.944;2022-09-28T07:18:21;6.97;;;5.20;;
16246;SDS011;8231;50.866;7.944;2022-09-28T07:20:50;6.00;;;5.07;;
16246;SDS011;8231;50.866;7.944;2022-09-28T07:23:21;5.18;;;4.68;;
16246;SDS011;8231;50.866;7.944;2022-09-28T07:26:09;4.90;;;4.45;;
16246;SDS011;8231;50.866;7.944;2022-09-28T07:28:56;7.68;;;5.90;;
16246;SDS011;8231;50.866;7.944;2022-09-28T07:31:45;7.10;;;5.00;;
16246;SDS011;8231;50.866;7.944;2022-09-28T07:34:32;8.82;;;6.30;;
16246;SDS011;8231;50.866;7.944;2022-09-28T07:37:10;6.10;;;5.03;;
16246;SDS011;8231;50.866;7.944;2022-09-28T07:39:40;5.65;;;5.15;;
16246;SDS011;8231;50.866;7.944;2022-09-28T07:42:28;8.38;;;6.45;;
16246;SDS011;8231;50.866;7.944;2022-09-28T07:44:56;7.50;;;6.30;;
16246;SDS011;8231;50.866;7.944;2022-09-28T07:47:25;7.65;;;6.88;;
16246;SDS011;8231;50.866;7.944;2022-09-28T07:50:30;7.28;;;6.57;;
16246;SDS011;8231;50.866;7.944;2022-09-28T07:53:18;7.90;;;6.85;;
16246;SDS011;8231;50.866;7.944;2022-09-28T07:55:59;8.77;;;7.38;;
16246;SDS011;8231;50.866;7.944;2022-09-28T07:58:39;7.90;;;6.95;;
16246;SDS011;8231;50.866;7.944;2022-09-28T08:01:37;9.38;;;7.88;;
16246;SDS011;8231;50.866;7.944;2022-09-28T08:04:08;13.93;;;9.77;;
16246;SDS011;8231;50.866;7.944;2022-09-28T08:06:37;11.07;;;9.23;;
16246;SDS011;8231;50.866;7.944;2022-09-28T08:09:07;11.52;;;8.70;;
16246;SDS011;8231;50.866;7.944;2022-09-28T08:11:57;9.27;;;7.90;;
16246;SDS011;8231;50.866;7.944;2022-09-28T08:14:55;9.93;;;7.60;;
16246;SDS011;8231;50.866;7.944;2022-09-28T08:17:45;10.00;;;7.85;;
16246;SDS011;8231;50.866;7.944;2022-09-28T08:20:15;8.45;;;7.57;;
16246;SDS011;8231;50.866;7.944;2022-09-28T08:23:01;7.20;;;6.00;;
16246;SDS011;8231;50.866;7.944;2022-09-28T08:25:30;7.43;;;6.70;;
16246;SDS011;8231;50.866;7.944;2022-09-28T08:28:03;7.25;;;6.53;;
16246;SDS011;8231;50.866;7.944;2022-09-28T08:30:36;7.40;;;5.63;;
16246;SDS011;8231;50.866;7.944;2022-09-28T08:33:28;6.90;;;5.80;;
16246;SDS011;8231;50.866;7.944;2022-09-28T08:36:43;7.50;;;6.78;;
16246;SDS011;8231;50.866;7.944;2022-09-28T08:39:29;6.95;;;6.25;;
16246;SDS011;8231;50.866;7.944;2022-09-28T08:42:30;7.28;;;6.57;;
16246;SDS011;8231;50.866;7.944;2022-09-28T08:45:25;8.52;;;7.00;;
16246;SDS011;8231;50.866;7.944;2022-09-28T08:48:02;7.38;;;6.68;;
16246;SDS011;8231;50.866;7.944;2022-09-28T08:51:14;5.57;;;5.05;;
16246;SDS011;8231;50.866;7.944;2022-09-28T08:54:11;6.88;;;6.28;;
16246;SDS011;8231;50.866;7.944;2022-09-28T08:56:53;5.43;;;4.93;;
16246;SDS011;8231;50.866;7.944;2022-09-28T08:59:25;6.47;;;5.93;;
16246;SDS011;8231;50.866;7.944;2022-09-28T09:02:10;6.18;;;5.68;;
16246;SDS011;8231;50.866;7.944;2022-09-28T09:04:42;5.20;;;4.70;;
16246;SDS011;8231;50.866;7.944;2022-09-28T09:07:26;6.20;;;5.60;;
16246;SDS011;8231;50.866;7.944;2022-09-28T09:10:12;10.23;;;5.90;;
16246;SDS011;8231;50.866;7.944;2022-09-28T09:12:55;4.95;;;4.55;;
16246;SDS011;8231;50.866;7.944;2022-09-28T09:15:39;4.88;;;4.45;;
16246;SDS011;8231;50.866;7.944;2022-09-28T09:18:27;5.40;;;4.88;;
16246;SDS011;8231;50.866;7.944;2022-09-28T09:21:26;6.20;;;5.55;;
16246;SDS011;8231;50.866;7.944;2022-09-28T09:24:09;5.38;;;4.82;;
16246;SDS011;8231;50.866;7.944;2022-09-28T09:27:04;5.15;;;4.65;;
16246;SDS011;8231;50.866;7.944;2022-09-28T09:29:43;4.40;;;3.95;;
16246;SDS011;8231;50.866;7.944;2022-09-28T09:32:30;5.18;;;3.72;;
16246;SDS011;8231;50.866;7.944;2022-09-28T09:35:18;5.40;;;4.10;;
16246;SDS011;8231;50.866;7.944;2022-09-28T09:38:32;5.18;;;4.68;;
16246;SDS011;8231;50.866;7.944;2022-09-28T09:41:38;5.15;;;4.03;;
16246;SDS011;8231;50.866;7.944;2022-09-28T09:44:55;3.88;;;3.58;;
16246;SDS011;8231;50.866;7.944;2022-09-28T09:47:59;4.57;;;4.18;;
16246;SDS011;8231;50.866;7.944;2022-09-28T09:50:34;4.38;;;3.92;;
16246;SDS011;8231;50.866;7.944;2022-09-28T09:53:10;4.10;;;3.70;;
16246;SDS011;8231;50.866;7.944;2022-09-28T09:55:43;4.45;;;3.88;;
16246;SDS011;8231;50.866;7.944;2022-09-28T09:58:34;4.97;;;3.63;;
16246;SDS011;8231;50.866;7.944;2022-09-28T10:01:19;4.20;;;3.80;;
16246;SDS011;8231;50.866;7.944;2022-09-28T10:04:26;5.72;;;4.90;;
16246;SDS011;8231;50.866;7.944;2022-09-28T10:07:04;3.45;;;3.17;;
16246;SDS011;8231;50.866;7.944;2022-09-28T10:09:35;4.65;;;3.00;;
16246;SDS011;8231;50.866;7.944;2022-09-28T10:12:24;4.50;;;3.53;;
16246;SDS011;8231;50.866;7.944;2022-09-28T10:14:53;4.70;;;3.50;;
16246;SDS011;8231;50.866;7.944;2022-09-28T10:17:25;4.32;;;3.70;;
16246;SDS011;8231;50.866;7.944;2022-09-28T10:20:30;3.58;;;3.28;;
16246;SDS011;8231;50.866;7.944;2022-09-28T10:23:16;3.90;;;3.47;;
16246;SDS011;8231;50.866;7.944;2022-09-28T10:25:49;4.82;;;4.15;;
16246;SDS011;8231;50.866;7.944;2022-09-28T10:28:21;3.65;;;3.35;;
16246;SDS011;8231;50.866;7.944;2022-09-28T10:30:55;3.35;;;3.05;;
16246;SDS011;8231;50.866;7.944;2022-09-28T10:33:28;9.57;;;3.78;;
16246;SDS011;8231;50.866;7.944;2022-09-28T10:35:57;3.78;;;2.80;;
16246;SDS011;8231;50.866;7.944;2022-09-28T10:38:28;3.45;;;3.08;;
16246;SDS011;8231;50.866;7.944;2022-09-28T10:41:11;4.07;;;3.78;;
16246;SDS011;8231;50.866;7.944;2022-09-28T10:43:55;3.95;;;3.45;;
16246;SDS011;8231;50.866;7.944;2022-09-28T10:46:54;5.20;;;3.10;;
16246;SDS011;8231;50.866;7.944;2022-09-28T10:49:23;3.80;;;3.50;;
16246;SDS011;8231;50.866;7.944;2022-09-28T10:51:56;5.03;;;3.75;;
16246;SDS011;8231;50.866;7.944;2022-09-28T10:54:36;3.90;;;3.60;;
16246;SDS011;8231;50.866;7.944;2022-09-28T10:57:23;3.47;;;3.17;;
16246;SDS011;8231;50.866;7.944;2022-09-28T11:00:02;3.78;;;3.38;;
16246;SDS011;8231;50.866;7.944;2022-09-28T11:02:54;4.28;;;3.40;;
16246;SDS011;8231;50.866;7.944;2022-09-28T11:05:24;6.30;;;3.58;;
16246;SDS011;8231;50.866;7.944;2022-09-28T11:07:56;5.38;;;3.50;;
16246;SDS011;8231;50.866;7.944;2022-09-28T11:10:34;2.83;;;2.60;;
16246;SDS011;8231;50.866;7.944;2022-09-28T11:13:13;2.72;;;2.53;;
16246;SDS011;8231;50.866;7.944;2022-09-28T11:15:48;4.35;;;2.70;;
16246;SDS011;8231;50.866;7.944;2022-09-28T11:18:25;4.47;;;2.85;;
16246;SDS011;8231;50.866;7.944;2022-09-28T11:21:05;2.92;;;2.72;;
16246;SDS011;8231;50.866;7.944;2022-09-28T11:23:39;3.63;;;2.80;;
16246;SDS011;8231;50.866;7.944;2022-09-28T11:26:19;3.00;;;2.58;;
16246;SDS011;8231;50.866;7.944;2022-09-28T11:28:49;2.70;;;2.42;;
16246;SDS011;8231;50.866;7.944;2022-09-28T11:31:28;3.30;;;3.00;;
16246;SDS011;8231;50.866;7.944;2022-09-28T11:34:05;4.43;;;2.72;;
16246;SDS011;8231;50.866;7.944;2022-09-28T11:37:02;2.60;;;2.40;;
16246;SDS011;8231;50.866;7.944;2022-09-28T11:39:43;3.50;;;3.20;;
16246;SDS011;8231;50.866;7.944;2022-09-28T11:42:24;3.70;;;3.40;;
16246;SDS011;8231;50.866;7.944;2022-09-28T11:45:03;3.72;;;3.20;;
16246;SDS011;8231;50.866;7.944;2022-09-28T11:47:50;3.85;;;3.55;;
16246;SDS011;8231;50.866;7.944;2022-09-28T11:50:30;3.90;;;3.20;;
16246;SDS011;8231;50.866;7.944;2022-09-28T11:53:11;3.05;;;2.83;;
16246;SDS011;8231;50.866;7.944;2022-09-28T11:55:46;3.53;;;2.38;;
16246;SDS011;8231;50.866;7.944;2022-09-28T11:58:23;3.15;;;2.70;;
16246;SDS011;8231;50.866;7.944;2022-09-28T12:00:58;3.63;;;2.65;;
16246;SDS011;8231;50.866;7.944;2022-09-28T12:04:01;3.40;;;3.08;;
16246;SDS011;8231;50.866;7.944;2022-09-28T12:06:33;3.13;;;2.50;;
16246;SDS011;8231;50.866;7.944;2022-09-28T12:09:10;2.70;;;2.50;;
16246;SDS011;8231;50.866;7.944;2022-09-28T12:11:57;3.05;;;2.53;;
16246;SDS011;8231;50.866;7.944;2022-09-28T12:14:42;3.42;;;2.75;;
16246;SDS011;8231;50.866;7.944;2022-09-28T12:17:15;2.10;;;2.00;;
16246;SDS011;8231;50.866;7.944;2022-09-28T12:19:48;2.20;;;2.00;;
16246;SDS011;8231;50.866;7.944;2022-09-28T12:22:22;7.60;;;2.38;;
16246;SDS011;8231;50.866;7.944;2022-09-28T12:24:56;1.83;;;1.73;;
16246;SDS011;8231;50.866;7.944;2022-09-28T12:27:26;3.42;;;2.40;;
16246;SDS011;8231;50.866;7.944;2022-09-28T12:30:01;2.58;;;2.13;;
16246;SDS011;8231;50.866;7.944;2022-09-28T12:32:33;3.47;;;2.08;;
16246;SDS011;8231;50.866;7.944;2022-09-28T12:35:09;3.83;;;2.13;;
16246;SDS011;8231;50.866;7.944;2022-09-28T12:37:43;2.67;;;2.17;;
16246;SDS011;8231;50.866;7.944;2022-09-28T12:40:23;4.03;;;2.40;;
16246;SDS011;8231;50.866;7.944;2022-09-28T12:46:18;3.65;;;2.40;;
16246;SDS011;8231;50.866;7.944;2022-09-28T12:49:09;3.20;;;2.83;;
16246;SDS011;8231;50.866;7.944;2022-09-28T12:52:12;3.97;;;2.60;;
16246;SDS011;8231;50.866;7.944;2022-09-28T12:54:59;3.85;;;3.10;;
16246;SDS011;8231;50.866;7.944;2022-09-28T12:57:53;4.63;;;2.88;;
16246;SDS011;8231;50.866;7.944;2022-09-28T13:00:26;4.03;;;3.05;;
16246;SDS011;8231;50.866;7.944;2022-09-28T13:03:08;5.05;;;4.18;;
16246;SDS011;8231;50.866;7.944;2022-09-28T13:06:02;5.82;;;4.82;;
16246;SDS011;8231;50.866;7.944;2022-09-28T13:08:42;3.35;;;2.92;;
16246;SDS011;8231;50.866;7.944;2022-09-28T13:11:21;4.00;;;3.67;;
16246;SDS011;8231;50.866;7.944;2022-09-28T13:14:00;5.38;;;2.83;;
16246;SDS011;8231;50.866;7.944;2022-09-28T13:16:48;4.57;;;3.80;;
16246;SDS011;8231;50.866;7.944;2022-09-28T13:19:29;4.00;;;3.65;;
16246;SDS011;8231;50.866;7.944;2022-09-28T13:22:09;5.28;;;3.13;;
16246;SDS011;8231;50.866;7.944;2022-09-28T13:24:47;3.45;;;2.80;;
16246;SDS011;8231;50.866;7.944;2022-09-28T13:27:18;3.65;;;2.38;;
16246;SDS011;8231;50.866;7.944;2022-09-28T13:29:52;5.43;;;3.00;;
16246;SDS011;8231;50.866;7.944;2022-09-28T13:32:26;5.95;;;3.20;;
16246;SDS011;8231;50.866;7.944;2022-09-28T13:34:58;4.22;;;2.53;;
16246;SDS011;8231;50.866;7.944;2022-09-28T13:37:27;3.15;;;2.63;;
16246;SDS011;8231;50.866;7.944;2022-09-28T13:39:56;3.25;;;1.92;;
16246;SDS011;8231;50.866;7.944;2022-09-28T13:42:35;3.60;;;2.15;;
16246;SDS011;8231;50.866;7.944;2022-09-28T13:45:23;3.00;;;2.20;;
16246;SDS011;8231;50.866;7.944;2022-09-28T13:48:12;3.58;;;2.30;;
16246;SDS011;8231;50.866;7.944;2022-09-28T13:53:57;3.88;;;2.28;;
16246;SDS011;8231;50.866;7.944;2022-09-28T13:56:38;2.53;;;2.05;;
16246;SDS011;8231;50.866;7.944;2022-09-28T13:59:17;2.58;;;2.22;;
16246;SDS011;8231;50.866;7.944;2022-09-28T14:01:50;1.80;;;1.55;;
16246;SDS011;8231;50.866;7.944;2022-09-28T14:04:24;3.13;;;1.80;;
16246;SDS011;8231;50.866;7.944;2022-09-28T14:07:20;3.20;;;1.77;;
16246;SDS011;8231;50.866;7.944;2022-09-28T14:12:43;2.78;;;1.85;;
16246;SDS011;8231;50.866;7.944;2022-09-28T14:18:25;6.97;;;3.72;;
16246;SDS011;8231;50.866;7.944;2022-09-28T14:21:00;3.42;;;1.85;;
16246;SDS011;8231;50.866;7.944;2022-09-28T14:23:51;3.35;;;1.77;;
16246;SDS011;8231;50.866;7.944;2022-09-28T14:29:45;1.83;;;1.40;;
16246;SDS011;8231;50.866;7.944;2022-09-28T14:32:20;2.22;;;1.73;;
16246;SDS011;8231;50.866;7.944;2022-09-28T14:34:54;2.08;;;1.52;;
16246;SDS011;8231;50.866;7.944;2022-09-28T14:37:25;1.90;;;1.70;;
16246;SDS011;8231;50.866;7.944;2022-09-28T14:40:18;2.88;;;1.50;;
16246;SDS011;8231;50.866;7.944;2022-09-28T14:43:21;2.13;;;1.50;;
16246;SDS011;8231;50.866;7.944;2022-09-28T14:48:56;1.92;;;1.30;;
16246;SDS011;8231;50.866;7.944;2022-09-28T14:54:37;3.65;;;1.95;;
16246;SDS011;8231;50.866;7.944;2022-09-28T14:57:27;5.57;;;1.60;;
16246;SDS011;8231;50.866;7.944;2022-09-28T14:59:57;3.17;;;1.60;;
16246;SDS011;8231;50.866;7.944;2022-09-28T15:02:29;2.03;;;1.10;;
16246;SDS011;8231;50.866;7.944;2022-09-28T15:05:00;1.02;;;1.00;;
16246;SDS011;8231;50.866;7.944;2022-09-28T15:07:44;3.65;;;1.40;;
16246;SDS011;8231;50.866;7.944;2022-09-28T15:10:21;3.60;;;1.20;;
16246;SDS011;8231;50.866;7.944;2022-09-28T15:12:59;1.38;;;1.27;;
16246;SDS011;8231;50.866;7.944;2022-09-28T15:15:30;1.58;;;1.35;;
16246;SDS011;8231;50.866;7.944;2022-09-28T15:18:02;4.45;;;1.25;;
16246;SDS011;8231;50.866;7.944;2022-09-28T15:20:39;5.15;;;1.25;;
16246;SDS011;8231;50.866;7.944;2022-09-28T15:23:22;3.17;;;1.60;;
16246;SDS011;8231;50.866;7.944;2022-09-28T15:25:52;1.58;;;1.30;;
16246;SDS011;8231;50.866;7.944;2022-09-28T15:28:23;2.78;;;1.33;;
16246;SDS011;8231;50.866;7.944;2022-09-28T15:30:56;2.17;;;1.15;;
16246;SDS011;8231;50.866;7.944;2022-09-28T15:33:26;3.45;;;1.27;;
16246;SDS011;8231;50.866;7.944;2022-09-28T15:36:15;1.40;;;1.30;;
16246;SDS011;8231;50.866;7.944;2022-09-28T15:38:49;1.67;;;1.27;;
16246;SDS011;8231;50.866;7.944;2022-09-28T15:41:21;1.40;;;1.23;;
16246;SDS011;8231;50.866;7.944;2022-09-28T15:47:11;5.00;;;2.17;;
16246;SDS011;8231;50.866;7.944;2022-09-28T15:49:43;4.97;;;2.65;;
16246;SDS011;8231;50.866;7.944;2022-09-28T15:52:24;2.58;;;1.30;;
16246;SDS011;8231;50.866;7.944;2022-09-28T15:54:55;1.50;;;1.40;;
16246;SDS011;8231;50.866;7.944;2022-09-28T15:57:28;5.28;;;1.45;;
16246;SDS011;8231;50.866;7.944;2022-09-28T16:00:00;4.55;;;1.52;;
16246;SDS011;8231;50.866;7.944;2022-09-28T16:02:37;3.10;;;1.45;;
16246;SDS011;8231;50.866;7.944;2022-09-28T16:05:20;3.72;;;2.03;;
16246;SDS011;8231;50.866;7.944;2022-09-28T16:08:00;2.05;;;1.70;;
16246;SDS011;8231;50.866;7.944;2022-09-28T16:10:30;2.70;;;2.25;;
16246;SDS011;8231;50.866;7.944;2022-09-28T16:13:07;1.90;;;1.75;;
16246;SDS011;8231;50.866;7.944;2022-09-28T16:15:42;1.80;;;1.30;;
16246;SDS011;8231;50.866;7.944;2022-09-28T16:18:14;2.25;;;1.60;;
16246;SDS011;8231;50.866;7.944;2022-09-28T16:20:46;2.08;;;1.70;;
16246;SDS011;8231;50.866;7.944;2022-09-28T16:23:18;2.00;;;1.80;;
16246;SDS011;8231;50.866;7.944;2022-09-28T16:25:50;1.88;;;1.35;;